createdAt,value
2019-01-14T00:00:07.837Z,3.40
2019-01-14T00:01:07.914Z,3.40
2019-01-14T00:02:07.733Z,3.10
2019-01-14T00:03:07.844Z,3.90
2019-01-14T00:04:07.719Z,3.20
2019-01-14T00:05:07.776Z,4.40
2019-01-14T00:06:10.323Z,4.50
2019-01-14T00:07:07.770Z,3.90
2019-01-14T00:08:07.757Z,3.20
2019-01-14T00:09:07.741Z,4.10
2019-01-14T00:10:07.740Z,4.80
2019-01-14T00:11:07.774Z,5.20
2019-01-14T00:12:07.768Z,3.50
2019-01-14T00:13:07.881Z,6.50
2019-01-14T00:14:07.807Z,6.80
2019-01-14T00:15:07.802Z,4.90
2019-01-14T00:16:07.807Z,4.80
2019-01-14T00:17:07.814Z,14.10
2019-01-14T00:18:07.799Z,4.00
2019-01-14T00:19:07.818Z,4.50
2019-01-14T00:20:07.785Z,4.10
2019-01-14T00:21:07.819Z,4.20
2019-01-14T00:22:07.815Z,4.80
2019-01-14T00:23:07.795Z,3.90
2019-01-14T00:24:07.802Z,5.70
2019-01-14T00:25:07.819Z,4.20
2019-01-14T00:26:07.822Z,4.10
2019-01-14T00:27:07.876Z,3.90
2019-01-14T00:28:07.825Z,4.00
2019-01-14T00:29:07.861Z,4.50
2019-01-14T00:30:07.868Z,3.90
2019-01-14T00:31:07.878Z,4.30
2019-01-14T00:32:07.828Z,4.20
2019-01-14T00:33:07.868Z,4.30
2019-01-14T00:34:07.860Z,4.10
2019-01-14T00:35:07.880Z,4.10
2019-01-14T00:36:07.862Z,4.10
2019-01-14T00:37:07.964Z,4.30
2019-01-14T00:38:07.912Z,4.10
2019-01-14T00:39:07.879Z,4.10
2019-01-14T00:40:07.878Z,3.90
2019-01-14T00:41:07.944Z,3.90
2019-01-14T00:42:07.887Z,4.10
2019-01-14T00:43:07.905Z,4.00
2019-01-14T00:44:07.899Z,4.10
2019-01-14T00:45:07.913Z,4.30
2019-01-14T00:46:07.912Z,4.00
2019-01-14T00:47:07.913Z,3.90
2019-01-14T00:48:08.168Z,4.50
2019-01-14T00:49:07.934Z,3.90
2019-01-14T00:50:08.801Z,3.70
2019-01-14T00:51:07.924Z,3.80
2019-01-14T00:52:07.914Z,4.10
2019-01-14T00:53:07.917Z,4.10
2019-01-14T00:54:07.930Z,3.80
2019-01-14T00:55:07.967Z,3.80
2019-01-14T00:56:07.988Z,3.80
2019-01-14T00:57:07.941Z,4.10
2019-01-14T00:58:07.942Z,4.00
2019-01-14T00:59:08.049Z,3.90
2019-01-14T01:00:07.978Z,4.00
2019-01-14T01:01:08.009Z,4.40
2019-01-14T01:02:07.980Z,4.90
2019-01-14T01:03:07.975Z,4.60
2019-01-14T01:04:08.019Z,4.60
2019-01-14T01:05:07.965Z,4.70
2019-01-14T01:06:07.993Z,4.30
2019-01-14T01:07:07.985Z,4.60
2019-01-14T01:08:07.987Z,4.40
2019-01-14T01:09:07.974Z,4.50
2019-01-14T01:10:08.090Z,4.70
2019-01-14T01:11:08.028Z,4.50
2019-01-14T01:12:08.016Z,4.50
2019-01-14T01:13:08.012Z,4.40
2019-01-14T01:14:08.040Z,4.50
2019-01-14T01:15:08.048Z,4.80
2019-01-14T01:16:08.081Z,4.70
2019-01-14T01:17:08.035Z,4.80
2019-01-14T01:18:08.055Z,4.60
2019-01-14T01:19:08.034Z,4.20
2019-01-14T01:20:08.048Z,4.50
2019-01-14T01:21:08.053Z,4.40
2019-01-14T01:22:08.060Z,4.60
2019-01-14T01:23:08.058Z,4.50
2019-01-14T01:24:08.074Z,4.00
2019-01-14T01:25:08.044Z,4.10
2019-01-14T01:26:08.045Z,4.30
2019-01-14T01:27:08.052Z,4.40
2019-01-14T01:28:08.106Z,4.20
2019-01-14T01:29:08.048Z,4.50
2019-01-14T01:30:08.055Z,4.80
2019-01-14T01:31:08.075Z,4.20
2019-01-14T01:32:08.131Z,4.30
2019-01-14T01:33:08.078Z,4.90
2019-01-14T01:34:08.140Z,4.50
2019-01-14T01:35:08.089Z,4.70
2019-01-14T01:36:08.193Z,4.30
2019-01-14T01:37:08.099Z,3.90
2019-01-14T01:38:08.103Z,4.30
2019-01-14T01:39:08.165Z,4.90
2019-01-14T01:40:08.119Z,4.80
2019-01-14T01:41:08.099Z,4.40
2019-01-14T01:42:08.123Z,4.80
2019-01-14T01:43:08.099Z,5.30
2019-01-14T01:44:08.120Z,4.50
2019-01-14T01:45:08.205Z,4.90
2019-01-14T01:46:08.173Z,4.80
2019-01-14T01:47:08.127Z,4.70
2019-01-14T01:48:08.150Z,4.90
2019-01-14T01:49:08.140Z,4.50
2019-01-14T01:50:08.140Z,4.80
2019-01-14T01:51:08.156Z,4.50
2019-01-14T01:52:08.237Z,4.40
2019-01-14T01:53:08.140Z,5.00
2019-01-14T01:54:08.150Z,4.70
2019-01-14T01:55:08.201Z,4.90
2019-01-14T01:56:08.163Z,4.80
2019-01-14T01:57:08.180Z,4.70
2019-01-14T01:58:08.204Z,4.60
2019-01-14T01:59:08.202Z,4.40
2019-01-14T02:00:08.177Z,4.90
2019-01-14T02:01:08.178Z,4.60
2019-01-14T02:02:08.218Z,4.60
2019-01-14T02:03:08.193Z,4.70
2019-01-14T02:04:08.189Z,4.70
2019-01-14T02:05:08.198Z,4.80
2019-01-14T02:06:08.227Z,4.80
2019-01-14T02:07:08.239Z,4.80
2019-01-14T02:08:08.223Z,4.90
2019-01-14T02:09:08.224Z,5.00
2019-01-14T02:10:08.208Z,4.80
2019-01-14T02:11:08.202Z,4.30
2019-01-14T02:12:08.229Z,4.80
2019-01-14T02:13:08.232Z,4.60
2019-01-14T02:14:08.258Z,5.20
2019-01-14T02:15:08.227Z,4.80
2019-01-14T02:16:08.238Z,5.00
2019-01-14T02:17:08.227Z,4.90
2019-01-14T02:18:08.256Z,4.60
2019-01-14T02:19:08.261Z,4.80
2019-01-14T02:20:08.261Z,4.50
2019-01-14T02:21:08.247Z,4.40
2019-01-14T02:22:08.255Z,4.90
2019-01-14T02:23:08.267Z,5.10
2019-01-14T02:24:08.304Z,4.60
2019-01-14T02:25:08.270Z,4.90
2019-01-14T02:26:08.281Z,4.70
2019-01-14T02:27:08.307Z,4.90
2019-01-14T02:28:08.270Z,4.50
2019-01-14T02:29:08.303Z,5.30
2019-01-14T02:30:08.332Z,5.10
2019-01-14T02:31:08.278Z,5.00
2019-01-14T02:32:08.289Z,5.20
2019-01-14T02:33:08.292Z,4.80
2019-01-14T02:34:08.317Z,4.90
2019-01-14T02:35:08.303Z,5.10
2019-01-14T02:36:08.334Z,4.70
2019-01-14T02:37:08.303Z,4.90
2019-01-14T02:38:08.319Z,4.80
2019-01-14T02:39:08.328Z,4.80
2019-01-14T02:40:08.331Z,4.60
2019-01-14T02:41:08.343Z,4.60
2019-01-14T02:42:08.348Z,4.80
2019-01-14T02:43:08.325Z,4.90
2019-01-14T02:44:08.332Z,5.00
2019-01-14T02:45:08.338Z,4.80
2019-01-14T02:46:08.341Z,4.30
2019-01-14T02:47:08.397Z,4.70
2019-01-14T02:48:08.376Z,4.80
2019-01-14T02:49:08.368Z,4.50
2019-01-14T02:50:08.347Z,4.90
2019-01-14T02:51:08.356Z,4.70
2019-01-14T02:52:08.358Z,4.80
2019-01-14T02:53:08.391Z,4.50
2019-01-14T02:54:08.375Z,4.40
2019-01-14T02:55:08.386Z,4.90
2019-01-14T02:56:08.385Z,4.60
2019-01-14T02:57:08.400Z,4.40
2019-01-14T02:58:08.373Z,4.70
2019-01-14T02:59:08.408Z,4.30
2019-01-14T03:00:08.393Z,4.50
2019-01-14T03:01:08.394Z,4.40
2019-01-14T03:02:08.409Z,4.20
2019-01-14T03:03:08.414Z,4.40
2019-01-14T03:04:08.407Z,4.70
2019-01-14T03:05:08.403Z,4.10
2019-01-14T03:06:08.403Z,4.50
2019-01-14T03:07:08.407Z,4.20
2019-01-14T03:08:08.427Z,4.30
2019-01-14T03:09:08.419Z,4.20
2019-01-14T03:10:08.429Z,4.70
2019-01-14T03:11:08.443Z,4.40
2019-01-14T03:12:08.441Z,4.30
2019-01-14T03:13:08.476Z,4.40
2019-01-14T03:14:08.462Z,4.20
2019-01-14T03:15:08.441Z,4.70
2019-01-14T03:16:08.445Z,5.30
2019-01-14T03:17:08.446Z,5.20
2019-01-14T03:18:08.530Z,4.40
2019-01-14T03:19:08.484Z,4.60
2019-01-14T03:20:08.446Z,4.70
2019-01-14T03:21:08.495Z,4.50
2019-01-14T03:22:08.466Z,4.80
2019-01-14T03:23:08.530Z,4.70
2019-01-14T03:24:08.462Z,4.50
2019-01-14T03:25:08.489Z,4.00
2019-01-14T03:26:08.540Z,4.20
2019-01-14T03:27:08.507Z,4.10
2019-01-14T03:28:08.485Z,4.40
2019-01-14T03:29:08.506Z,3.90
2019-01-14T03:30:08.532Z,4.20
2019-01-14T03:31:08.493Z,4.20
2019-01-14T03:32:08.498Z,4.30
2019-01-14T03:33:08.498Z,3.80
2019-01-14T03:34:08.545Z,4.10
2019-01-14T03:35:08.517Z,4.00
2019-01-14T03:36:08.535Z,4.20
2019-01-14T03:37:08.520Z,3.90
2019-01-14T03:38:08.561Z,4.00
2019-01-14T03:39:08.538Z,3.90
2019-01-14T03:40:08.585Z,4.30
2019-01-14T03:41:08.538Z,4.20
2019-01-14T03:42:08.553Z,4.00
2019-01-14T03:43:08.548Z,3.90
2019-01-14T03:44:08.556Z,3.90
2019-01-14T03:45:08.554Z,3.90
2019-01-14T03:46:08.580Z,4.60
2019-01-14T03:47:08.563Z,4.20
2019-01-14T03:48:08.592Z,3.90
2019-01-14T03:49:08.556Z,4.00
2019-01-14T03:50:08.624Z,4.00
2019-01-14T03:51:08.570Z,4.00
2019-01-14T03:52:08.583Z,3.70
2019-01-14T03:53:08.588Z,3.70
2019-01-14T03:54:08.586Z,4.30
2019-01-14T03:55:08.598Z,4.20
2019-01-14T03:56:08.611Z,4.00
2019-01-14T03:57:08.598Z,3.80
2019-01-14T03:58:08.614Z,3.70
2019-01-14T03:59:08.599Z,4.00
2019-01-14T04:00:08.594Z,3.90
2019-01-14T04:01:08.637Z,4.40
2019-01-14T04:02:08.618Z,4.40
2019-01-14T04:03:08.658Z,4.10
2019-01-14T04:04:08.627Z,4.00
2019-01-14T04:05:08.623Z,4.20
2019-01-14T04:06:08.627Z,4.80
2019-01-14T04:07:13.637Z,4.40
2019-01-14T04:08:08.630Z,4.30
2019-01-14T04:09:08.661Z,4.40
2019-01-14T04:10:08.652Z,4.30
2019-01-14T04:11:08.642Z,4.10
2019-01-14T04:12:08.675Z,4.30
2019-01-14T04:13:08.639Z,4.30
2019-01-14T04:14:08.639Z,4.30
2019-01-14T04:15:08.642Z,3.90
2019-01-14T04:16:08.667Z,4.50
2019-01-14T04:17:08.661Z,4.70
2019-01-14T04:18:08.706Z,4.70
2019-01-14T04:19:08.665Z,4.30
2019-01-14T04:20:08.672Z,4.20
2019-01-14T04:21:08.690Z,4.40
2019-01-14T04:22:08.672Z,4.40
2019-01-14T04:23:08.836Z,4.40
2019-01-14T04:24:08.695Z,4.70
2019-01-14T04:25:08.699Z,4.00
2019-01-14T04:26:08.761Z,4.70
2019-01-14T04:27:08.702Z,4.10
2019-01-14T04:28:08.690Z,4.40
2019-01-14T04:29:08.718Z,3.90
2019-01-14T04:30:08.703Z,4.70
2019-01-14T04:31:08.698Z,4.10
2019-01-14T04:32:08.723Z,4.70
2019-01-14T04:33:08.714Z,4.20
2019-01-14T04:34:08.779Z,4.10
2019-01-14T04:35:08.704Z,4.10
2019-01-14T04:36:08.722Z,4.30
2019-01-14T04:37:08.750Z,4.20
2019-01-14T04:38:08.724Z,4.20
2019-01-14T04:39:08.751Z,3.50
2019-01-14T04:40:08.748Z,4.20
2019-01-14T04:41:08.719Z,4.10
2019-01-14T04:42:08.742Z,3.70
2019-01-14T04:43:08.731Z,3.90
2019-01-14T04:44:08.781Z,3.70
2019-01-14T04:45:08.794Z,3.60
2019-01-14T04:46:08.739Z,3.90
2019-01-14T04:47:08.760Z,3.80
2019-01-14T04:48:08.762Z,3.50
2019-01-14T04:49:08.771Z,3.40
2019-01-14T04:50:08.777Z,3.30
2019-01-14T04:51:08.792Z,3.10
2019-01-14T04:52:08.781Z,3.10
2019-01-14T04:53:08.785Z,3.40
2019-01-14T04:54:08.797Z,3.40
2019-01-14T04:55:08.765Z,3.00
2019-01-14T04:56:08.805Z,3.30
2019-01-14T04:57:08.781Z,3.10
2019-01-14T04:58:08.820Z,3.30
2019-01-14T04:59:08.797Z,3.30
2019-01-14T05:00:08.792Z,3.00
2019-01-14T05:01:08.856Z,3.30
2019-01-14T05:02:08.795Z,3.10
2019-01-14T05:03:08.809Z,3.10
2019-01-14T05:04:08.813Z,3.30
2019-01-14T05:05:08.823Z,3.00
2019-01-14T05:06:08.803Z,2.90
2019-01-14T05:07:08.842Z,2.80
2019-01-14T05:08:08.812Z,2.60
2019-01-14T05:09:08.815Z,3.10
2019-01-14T05:10:08.811Z,3.20
2019-01-14T05:11:08.827Z,3.10
2019-01-14T05:12:08.868Z,3.00
2019-01-14T05:13:08.823Z,2.90
2019-01-14T05:14:08.840Z,3.20
2019-01-14T05:15:08.836Z,2.80
2019-01-14T05:16:08.860Z,3.30
2019-01-14T05:17:09.260Z,2.80
2019-01-14T05:18:08.869Z,3.00
2019-01-14T05:19:08.875Z,3.00
2019-01-14T05:20:08.845Z,3.20
2019-01-14T05:21:08.855Z,2.80
2019-01-14T05:22:08.851Z,3.40
2019-01-14T05:23:08.911Z,3.20
2019-01-14T05:24:08.861Z,3.10
2019-01-14T05:25:08.914Z,2.90
2019-01-14T05:26:08.877Z,2.80
2019-01-14T05:27:08.872Z,2.90
2019-01-14T05:28:08.917Z,2.90
2019-01-14T05:29:08.874Z,3.10
2019-01-14T05:30:08.888Z,2.90
2019-01-14T05:31:08.873Z,2.90
2019-01-14T05:32:08.942Z,2.90
2019-01-14T05:33:08.899Z,3.10
2019-01-14T05:34:08.915Z,3.20
2019-01-14T05:35:08.928Z,3.00
2019-01-14T05:36:08.891Z,3.40
2019-01-14T05:37:08.898Z,3.10
2019-01-14T05:38:08.901Z,3.00
2019-01-14T05:39:08.907Z,3.30
2019-01-14T05:40:08.963Z,3.50
2019-01-14T05:41:08.958Z,3.10
2019-01-14T05:42:08.916Z,3.30
2019-01-14T05:43:08.976Z,3.10
2019-01-14T05:44:08.924Z,3.60
2019-01-14T05:45:08.943Z,3.20
2019-01-14T05:46:08.955Z,3.00
2019-01-14T05:47:08.950Z,3.10
2019-01-14T05:48:08.926Z,3.10
2019-01-14T05:49:08.930Z,3.10
2019-01-14T05:50:09.021Z,3.40
2019-01-14T05:51:08.986Z,3.20
2019-01-14T05:52:08.942Z,3.30
2019-01-14T05:53:08.953Z,3.40
2019-01-14T05:54:08.949Z,3.30
2019-01-14T05:55:08.956Z,3.10
2019-01-14T05:56:09.004Z,3.20
2019-01-14T05:57:08.962Z,2.90
2019-01-14T05:58:08.970Z,2.90
2019-01-14T05:59:08.973Z,3.50
2019-01-14T06:00:08.996Z,2.90
2019-01-14T06:01:09.012Z,3.10
2019-01-14T06:02:08.965Z,3.40
2019-01-14T06:03:08.986Z,3.20
2019-01-14T06:04:08.981Z,2.90
2019-01-14T06:05:08.975Z,3.00
2019-01-14T06:06:08.991Z,2.90
2019-01-14T06:07:09.029Z,3.10
2019-01-14T06:08:09.000Z,3.20
2019-01-14T06:09:08.999Z,2.90
2019-01-14T06:10:09.006Z,2.90
2019-01-14T06:11:09.015Z,3.00
2019-01-14T06:12:09.074Z,2.70
2019-01-14T06:13:09.000Z,3.10
2019-01-14T06:14:09.014Z,2.90
2019-01-14T06:15:09.013Z,3.20
2019-01-14T06:16:09.008Z,3.20
2019-01-14T06:17:09.009Z,3.10
2019-01-14T06:18:09.061Z,2.90
2019-01-14T06:19:09.024Z,2.80
2019-01-14T06:20:09.021Z,3.20
2019-01-14T06:21:09.049Z,3.00
2019-01-14T06:22:09.051Z,2.90
2019-01-14T06:23:09.107Z,3.20
2019-01-14T06:24:09.212Z,3.20
2019-01-14T06:25:09.037Z,3.20
2019-01-14T06:26:09.156Z,3.20
2019-01-14T06:27:09.036Z,3.00
2019-01-14T06:28:09.084Z,3.20
2019-01-14T06:29:09.055Z,3.50
2019-01-14T06:30:09.094Z,3.00
2019-01-14T06:31:09.097Z,3.30
2019-01-14T06:32:09.056Z,3.20
2019-01-14T06:33:09.064Z,3.20
2019-01-14T06:34:09.071Z,3.40
2019-01-14T06:35:09.070Z,2.70
2019-01-14T06:36:09.145Z,3.20
2019-01-14T06:37:09.082Z,3.30
2019-01-14T06:38:09.103Z,3.10
2019-01-14T06:39:09.085Z,3.30
2019-01-14T06:40:09.119Z,3.10
2019-01-14T06:41:09.117Z,3.40
2019-01-14T06:42:09.087Z,3.40
2019-01-14T06:43:09.082Z,3.60
2019-01-14T06:44:09.088Z,3.30
2019-01-14T06:45:09.100Z,3.20
2019-01-14T06:46:09.152Z,2.80
2019-01-14T06:47:09.130Z,2.40
2019-01-14T06:48:09.117Z,2.50
2019-01-14T06:49:09.116Z,2.50
2019-01-14T06:50:09.129Z,2.60
2019-01-14T06:51:09.119Z,2.50
2019-01-14T06:52:09.149Z,2.50
2019-01-14T06:53:09.137Z,2.50
2019-01-14T06:54:09.144Z,2.30
2019-01-14T06:55:09.116Z,2.30
2019-01-14T06:56:09.151Z,2.50
2019-01-14T06:57:09.158Z,2.20
2019-01-14T06:58:09.147Z,2.20
2019-01-14T06:59:09.136Z,2.10
2019-01-14T07:00:09.147Z,1.90
2019-01-14T07:01:09.170Z,2.20
2019-01-14T07:02:09.207Z,2.10
2019-01-14T07:03:09.168Z,2.00
2019-01-14T07:04:09.179Z,1.80
2019-01-14T07:05:09.154Z,1.70
2019-01-14T07:06:09.146Z,2.00
2019-01-14T07:07:09.256Z,1.80
2019-01-14T07:08:09.213Z,1.60
2019-01-14T07:09:09.157Z,1.50
2019-01-14T07:10:09.169Z,1.60
2019-01-14T07:11:09.188Z,1.90
2019-01-14T07:12:09.186Z,1.90
2019-01-14T07:13:09.179Z,1.90
2019-01-14T07:14:09.236Z,2.10
2019-01-14T07:15:09.191Z,1.70
2019-01-14T07:16:09.169Z,1.80
2019-01-14T07:17:09.191Z,2.00
2019-01-14T07:18:09.219Z,2.20
2019-01-14T07:19:09.241Z,2.20
2019-01-14T07:20:09.219Z,2.20
2019-01-14T07:21:09.191Z,2.10
2019-01-14T07:22:09.197Z,1.90
2019-01-14T07:23:09.211Z,2.10
2019-01-14T07:24:09.203Z,2.40
2019-01-14T07:25:09.235Z,2.30
2019-01-14T07:26:09.197Z,2.30
2019-01-14T07:27:09.199Z,2.40
2019-01-14T07:28:09.229Z,2.40
2019-01-14T07:29:09.208Z,2.50
2019-01-14T07:30:09.265Z,2.40
2019-01-14T07:31:09.213Z,2.50
2019-01-14T07:32:09.214Z,2.70
2019-01-14T07:33:09.222Z,2.80
2019-01-14T07:34:09.221Z,2.80
2019-01-14T07:35:09.233Z,2.60
2019-01-14T07:36:09.242Z,2.40
2019-01-14T07:37:09.304Z,2.60
2019-01-14T07:38:09.227Z,3.00
2019-01-14T07:39:09.236Z,2.90
2019-01-14T07:40:09.281Z,2.60
2019-01-14T07:41:09.275Z,2.60
2019-01-14T07:42:09.264Z,2.30
2019-01-14T07:43:09.230Z,2.60
2019-01-14T07:44:09.242Z,3.30
2019-01-14T07:45:09.254Z,2.80
2019-01-14T07:46:09.361Z,2.60
2019-01-14T07:47:09.308Z,2.60
2019-01-14T07:48:09.255Z,2.50
2019-01-14T07:49:09.277Z,2.80
2019-01-14T07:50:09.268Z,2.70
2019-01-14T07:51:09.251Z,2.70
2019-01-14T07:52:09.342Z,2.40
2019-01-14T07:53:09.280Z,2.70
2019-01-14T07:54:09.269Z,2.20
2019-01-14T07:55:09.268Z,2.60
2019-01-14T07:56:09.277Z,2.70
2019-01-14T07:57:09.342Z,2.80
2019-01-14T07:58:09.308Z,2.50
2019-01-14T07:59:09.313Z,2.20
2019-01-14T08:00:09.322Z,2.40
2019-01-14T08:01:09.300Z,2.70
2019-01-14T08:02:09.320Z,2.60
2019-01-14T08:03:09.276Z,2.20
2019-01-14T08:04:09.321Z,2.40
2019-01-14T08:05:09.289Z,2.30
2019-01-14T08:06:09.293Z,2.60
2019-01-14T08:07:09.318Z,2.70
2019-01-14T08:08:13.962Z,2.70
2019-01-14T08:09:09.310Z,2.60
2019-01-14T08:10:09.337Z,2.50
2019-01-14T08:11:09.303Z,2.40
2019-01-14T08:12:09.294Z,2.40
2019-01-14T08:13:09.310Z,2.90
2019-01-14T08:14:09.400Z,2.50
2019-01-14T08:15:09.312Z,2.30
2019-01-14T08:16:09.314Z,2.90
2019-01-14T08:17:09.334Z,3.00
2019-01-14T08:18:09.322Z,2.90
2019-01-14T08:19:09.380Z,3.00
2019-01-14T08:20:09.342Z,2.80
2019-01-14T08:21:09.352Z,2.90
2019-01-14T08:22:09.436Z,2.40
2019-01-14T08:23:09.322Z,2.50
2019-01-14T08:24:09.402Z,2.90
2019-01-14T08:25:09.361Z,2.90
2019-01-14T08:26:09.330Z,2.70
2019-01-14T08:27:09.374Z,3.00
2019-01-14T08:28:09.496Z,2.80
2019-01-14T08:29:09.350Z,2.90
2019-01-14T08:30:09.370Z,2.80
2019-01-14T08:31:09.390Z,2.80
2019-01-14T08:32:09.346Z,2.60
2019-01-14T08:33:09.354Z,2.80
2019-01-14T08:34:09.352Z,2.80
2019-01-14T08:35:09.415Z,3.20
2019-01-14T08:36:09.420Z,3.20
2019-01-14T08:37:09.382Z,3.10
2019-01-14T08:38:09.355Z,2.90
2019-01-14T08:39:09.377Z,2.90
2019-01-14T08:40:09.385Z,3.30
2019-01-14T08:41:09.376Z,2.90
2019-01-14T08:42:09.437Z,2.70
2019-01-14T08:43:09.409Z,3.20
2019-01-14T08:44:09.368Z,3.10
2019-01-14T08:45:09.378Z,3.20
2019-01-14T08:46:09.394Z,2.70
2019-01-14T08:47:09.414Z,2.90
2019-01-14T08:48:09.427Z,3.10
2019-01-14T08:49:09.404Z,3.00
2019-01-14T08:50:09.405Z,2.70
2019-01-14T08:51:09.401Z,2.90
2019-01-14T08:52:09.395Z,2.90
2019-01-14T08:53:09.406Z,3.30
2019-01-14T08:54:09.416Z,3.20
2019-01-14T08:55:09.418Z,3.40
2019-01-14T08:56:09.459Z,2.80
2019-01-14T08:57:09.431Z,3.20
2019-01-14T08:58:09.412Z,2.80
2019-01-14T08:59:09.443Z,3.20
2019-01-14T09:00:09.421Z,2.60
2019-01-14T09:01:09.428Z,2.70
2019-01-14T09:02:09.414Z,3.00
2019-01-14T09:03:09.478Z,3.00
2019-01-14T09:04:09.430Z,3.10
2019-01-14T09:05:09.468Z,2.80
2019-01-14T09:06:09.436Z,2.80
2019-01-14T09:07:09.451Z,3.00
2019-01-14T09:08:09.450Z,3.20
2019-01-14T09:09:09.532Z,2.80
2019-01-14T09:10:09.466Z,2.80
2019-01-14T09:11:09.471Z,2.80
2019-01-14T09:12:09.438Z,3.80
2019-01-14T09:13:09.467Z,2.90
2019-01-14T09:14:09.475Z,2.90
2019-01-14T09:15:09.498Z,3.20
2019-01-14T09:16:09.504Z,3.00
2019-01-14T09:17:09.490Z,2.90
2019-01-14T09:18:09.522Z,3.20
2019-01-14T09:19:09.463Z,2.70
2019-01-14T09:20:09.457Z,3.10
2019-01-14T09:21:09.459Z,3.30
2019-01-14T09:22:09.470Z,3.10
2019-01-14T09:23:09.467Z,3.00
2019-01-14T09:24:09.529Z,3.10
2019-01-14T09:25:09.531Z,3.10
2019-01-14T09:26:09.489Z,2.50
2019-01-14T09:27:09.500Z,2.80
2019-01-14T09:28:09.484Z,3.10
2019-01-14T09:29:09.606Z,2.80
2019-01-14T09:30:09.507Z,2.80
2019-01-14T09:31:09.518Z,2.70
2019-01-14T09:32:09.490Z,2.80
2019-01-14T09:33:09.491Z,2.90
2019-01-14T09:34:09.515Z,2.50
2019-01-14T09:35:09.497Z,2.50
2019-01-14T09:36:09.493Z,2.60
2019-01-14T09:37:09.511Z,2.70
2019-01-14T09:38:09.525Z,2.90
2019-01-14T09:39:09.529Z,2.70
2019-01-14T09:40:09.529Z,2.60
2019-01-14T09:41:09.519Z,2.30
2019-01-14T09:42:09.512Z,2.70
2019-01-14T09:43:09.523Z,2.60
2019-01-14T09:44:09.550Z,2.80
2019-01-14T09:45:09.526Z,2.70
2019-01-14T09:46:09.540Z,2.60
2019-01-14T09:47:09.529Z,2.80
2019-01-14T09:48:09.537Z,3.00
2019-01-14T09:49:09.531Z,2.70
2019-01-14T09:50:09.549Z,2.90
2019-01-14T09:51:09.563Z,3.30
2019-01-14T09:52:09.559Z,2.80
2019-01-14T09:53:09.548Z,2.90
2019-01-14T09:54:09.540Z,3.10
2019-01-14T09:55:09.552Z,2.80
2019-01-14T09:56:09.578Z,2.60
2019-01-14T09:57:09.561Z,2.70
2019-01-14T09:58:09.556Z,2.60
2019-01-14T09:59:09.560Z,2.10
2019-01-14T10:00:09.578Z,2.40
2019-01-14T10:01:09.653Z,2.60
2019-01-14T10:02:09.754Z,2.70
2019-01-14T10:03:09.600Z,2.50
2019-01-14T10:04:09.604Z,2.50
2019-01-14T10:05:09.564Z,2.50
2019-01-14T10:06:09.590Z,2.50
2019-01-14T10:07:09.568Z,2.30
2019-01-14T10:08:09.643Z,2.30
2019-01-14T10:09:09.583Z,2.40
2019-01-14T10:10:09.580Z,2.30
2019-01-14T10:11:09.648Z,2.60
2019-01-14T10:12:09.593Z,2.20
2019-01-14T10:13:09.622Z,2.40
2019-01-14T10:14:09.639Z,2.50
2019-01-14T10:15:09.662Z,2.30
2019-01-14T10:16:09.617Z,2.20
2019-01-14T10:17:09.649Z,2.50
2019-01-14T10:18:09.732Z,2.60
2019-01-14T10:19:09.619Z,2.60
2019-01-14T10:20:09.710Z,3.10
2019-01-14T10:21:09.607Z,2.40
2019-01-14T10:22:09.634Z,2.40
2019-01-14T10:23:09.628Z,2.40
2019-01-14T10:24:09.646Z,2.60
2019-01-14T10:25:09.630Z,2.30
2019-01-14T10:26:09.620Z,2.90
2019-01-14T10:27:09.687Z,2.70
2019-01-14T10:28:09.650Z,2.60
2019-01-14T10:29:09.671Z,2.80
2019-01-14T10:30:09.627Z,2.40
2019-01-14T10:31:09.632Z,2.50
2019-01-14T10:32:09.699Z,2.40
2019-01-14T10:33:09.676Z,2.40
2019-01-14T10:34:09.674Z,2.40
2019-01-14T10:35:09.659Z,2.50
2019-01-14T10:36:09.677Z,2.50
2019-01-14T10:37:09.671Z,2.50
2019-01-14T10:38:09.685Z,2.60
2019-01-14T10:39:09.698Z,2.60
2019-01-14T10:40:09.681Z,2.20
2019-01-14T10:41:09.663Z,2.20
2019-01-14T10:42:09.677Z,2.50
2019-01-14T10:43:09.695Z,2.20
2019-01-14T10:44:09.671Z,2.20
2019-01-14T10:45:09.708Z,2.10
2019-01-14T10:46:09.705Z,2.40
2019-01-14T10:47:09.685Z,2.20
2019-01-14T10:48:09.713Z,2.20
2019-01-14T10:49:09.689Z,2.60
2019-01-14T10:50:09.745Z,2.20
2019-01-14T10:51:09.788Z,2.60
2019-01-14T10:52:09.717Z,2.20
2019-01-14T10:53:09.744Z,2.30
2019-01-14T10:54:09.915Z,3.00
2019-01-14T10:55:12.437Z,2.20
2019-01-14T10:56:09.712Z,2.30
2019-01-14T10:57:09.731Z,2.30
2019-01-14T10:58:09.730Z,2.40
2019-01-14T10:59:09.714Z,2.10
2019-01-14T11:00:09.726Z,2.60
2019-01-14T11:01:09.742Z,2.50
2019-01-14T11:02:09.761Z,2.10
2019-01-14T11:03:09.774Z,2.50
2019-01-14T11:04:09.754Z,2.70
2019-01-14T11:05:09.775Z,2.50
2019-01-14T11:06:09.743Z,2.60
2019-01-14T11:07:09.756Z,2.50
2019-01-14T11:08:09.742Z,2.60
2019-01-14T11:09:09.780Z,2.40
2019-01-14T11:10:09.761Z,2.20
2019-01-14T11:11:09.764Z,2.60
2019-01-14T11:12:09.789Z,2.40
2019-01-14T11:13:09.751Z,2.30
2019-01-14T11:14:09.779Z,2.30
2019-01-14T11:15:09.781Z,2.20
2019-01-14T11:16:09.795Z,2.50
2019-01-14T11:17:09.850Z,2.80
2019-01-14T11:18:09.772Z,2.60
2019-01-14T11:19:09.803Z,2.50
2019-01-14T11:20:09.802Z,2.50
2019-01-14T11:21:14.380Z,2.10
2019-01-14T11:22:09.776Z,2.10
2019-01-14T11:23:09.830Z,2.10
2019-01-14T11:24:09.803Z,2.10
2019-01-14T11:25:09.790Z,2.30
2019-01-14T11:26:09.809Z,2.30
2019-01-14T11:27:09.805Z,2.00
2019-01-14T11:28:09.822Z,2.00
2019-01-14T11:29:09.817Z,2.20
2019-01-14T11:30:09.875Z,1.90
2019-01-14T11:31:09.896Z,2.30
2019-01-14T11:32:09.835Z,2.10
2019-01-14T11:33:09.847Z,2.10
2019-01-14T11:34:09.948Z,2.10
2019-01-14T11:35:09.834Z,2.00
2019-01-14T11:36:09.822Z,2.10
2019-01-14T11:37:09.858Z,2.10
2019-01-14T11:38:09.872Z,2.10
2019-01-14T11:39:10.035Z,2.00
2019-01-14T11:40:09.846Z,2.10
2019-01-14T11:41:09.843Z,2.30
2019-01-14T11:42:09.856Z,2.10
2019-01-14T11:43:09.860Z,2.20
2019-01-14T11:44:10.238Z,2.00
2019-01-14T11:45:09.882Z,2.00
2019-01-14T11:46:09.951Z,2.20
2019-01-14T11:47:09.853Z,2.20
2019-01-14T11:48:09.881Z,1.80
2019-01-14T11:49:09.870Z,2.00
2019-01-14T11:50:10.128Z,1.60
2019-01-14T11:51:09.887Z,1.90
2019-01-14T11:52:09.923Z,2.00
2019-01-14T11:53:09.890Z,1.90
2019-01-14T11:54:09.882Z,1.80
2019-01-14T11:55:09.897Z,2.20
2019-01-14T11:56:09.930Z,1.90
2019-01-14T11:57:09.922Z,2.20
2019-01-14T11:58:09.961Z,2.30
2019-01-14T11:59:09.897Z,3.80
2019-01-14T12:00:09.914Z,1.80
2019-01-14T12:01:10.108Z,1.60
2019-01-14T12:02:09.915Z,1.50
2019-01-14T12:03:09.946Z,1.40
2019-01-14T12:04:09.919Z,1.70
2019-01-14T12:05:09.931Z,1.70
2019-01-14T12:06:09.944Z,1.50
2019-01-14T12:07:09.939Z,1.40
2019-01-14T12:08:09.996Z,1.70
2019-01-14T12:09:12.319Z,2.20
2019-01-14T12:10:09.954Z,1.90
2019-01-14T12:11:09.954Z,1.80
2019-01-14T12:12:09.980Z,1.80
2019-01-14T12:13:09.975Z,1.70
2019-01-14T12:14:10.007Z,1.60
2019-01-14T12:15:09.956Z,1.60
2019-01-14T12:16:10.009Z,1.50
2019-01-14T12:17:09.999Z,1.80
2019-01-14T12:18:09.964Z,2.10
2019-01-14T12:19:09.968Z,1.80
2019-01-14T12:20:10.029Z,1.80
2019-01-14T12:21:09.978Z,1.50
2019-01-14T12:22:10.001Z,1.50
2019-01-14T12:23:10.013Z,1.90
2019-01-14T12:24:10.005Z,2.10
2019-01-14T12:25:10.002Z,1.80
2019-01-14T12:26:10.020Z,1.60
2019-01-14T12:27:09.997Z,2.00
2019-01-14T12:28:11.107Z,2.10
2019-01-14T12:29:09.984Z,1.90
2019-01-14T12:30:10.136Z,1.70
2019-01-14T12:31:09.992Z,1.60
2019-01-14T12:32:10.014Z,1.80
2019-01-14T12:33:10.445Z,2.20
2019-01-14T12:34:10.012Z,1.80
2019-01-14T12:35:10.062Z,1.70
2019-01-14T12:36:10.018Z,1.80
2019-01-14T12:37:10.040Z,1.80
2019-01-14T12:38:10.017Z,1.80
2019-01-14T12:39:10.040Z,1.80
2019-01-14T12:40:10.177Z,1.80
2019-01-14T12:41:10.020Z,2.00
2019-01-14T12:42:10.041Z,1.90
2019-01-14T12:43:10.030Z,2.20
2019-01-14T12:44:10.080Z,2.00
2019-01-14T12:45:10.724Z,2.20
2019-01-14T12:46:10.035Z,2.00
2019-01-14T12:47:10.056Z,2.10
2019-01-14T12:48:10.057Z,2.00
2019-01-14T12:49:10.048Z,1.90
2019-01-14T12:50:10.196Z,1.50
2019-01-14T12:51:10.080Z,1.80
2019-01-14T12:52:10.075Z,2.70
2019-01-14T12:53:10.073Z,1.90
2019-01-14T12:54:10.083Z,1.60
2019-01-14T12:55:10.094Z,1.40
2019-01-14T12:56:10.172Z,1.70
2019-01-14T12:57:10.077Z,2.10
2019-01-14T12:58:10.101Z,2.30
2019-01-14T12:59:10.091Z,2.20
2019-01-14T13:00:10.749Z,2.10
2019-01-14T13:01:10.094Z,1.90
2019-01-14T13:02:10.124Z,2.00
2019-01-14T13:03:10.099Z,2.30
2019-01-14T13:04:10.099Z,2.30
2019-01-14T13:05:10.142Z,1.70
2019-01-14T13:06:10.098Z,1.80
2019-01-14T13:07:10.128Z,1.70
2019-01-14T13:08:10.142Z,2.10
2019-01-14T13:09:10.112Z,1.20
2019-01-14T13:10:10.125Z,1.40
2019-01-14T13:11:10.131Z,1.20
2019-01-14T13:12:10.190Z,0.90
2019-01-14T13:13:10.148Z,1.30
2019-01-14T13:14:10.130Z,1.20
2019-01-14T13:15:10.142Z,1.30
2019-01-14T13:16:10.142Z,1.10
2019-01-14T13:17:10.150Z,1.10
2019-01-14T13:18:10.178Z,1.50